Time;durP1;ratioP1;P1;durP2;ratioP2;P2;SDS_P1;SDS_P2;PMS_P1;PMS_P2;Temp;Humidity;BMP_temperature;BMP_pressure;BME280_temperature;BME280_humidity;BME280_pressure;Samples;Min_cycle;Max_cycle;Signal;HPM_P1;HPM_P2
2024/01/23 00:02:22;;;;;;;5.75;1.08;;;8.50;99.90;;;;;;5011455;28;20109;-83
2024/01/23 00:04:48;;;;;;;3.10;0.43;;;8.50;99.90;;;;;;5005599;28;20030;-83
2024/01/23 00:07:13;;;;;;;12.45;3.05;;;8.50;99.90;;;;;;5008088;28;20084;-82
2024/01/23 00:09:39;;;;;;;4.47;1.75;;;8.50;99.90;;;;;;5001403;28;20030;-84
2024/01/23 00:12:07;;;;;;;2.97;2.00;;;8.50;99.90;;;;;;5005552;28;20030;-82
2024/01/23 00:14:33;;;;;;;2.63;0.73;;;8.60;99.90;;;;;;4998462;28;20471;-84
2024/01/23 00:16:59;;;;;;;8.57;1.80;;;8.50;99.90;;;;;;5016892;28;20486;-84
2024/01/23 00:19:25;;;;;;;19.45;2.58;;;8.50;99.90;;;;;;4995297;28;20032;-83
2024/01/23 00:21:51;;;;;;;1.38;1.05;;;8.50;99.90;;;;;;4998270;28;20026;-83
2024/01/23 00:24:17;;;;;;;13.80;2.15;;;8.50;99.90;;;;;;4997487;28;20034;-83
2024/01/23 00:26:43;;;;;;;8.40;0.60;;;8.50;99.90;;;;;;4997785;28;20053;-84
2024/01/23 00:29:09;;;;;;;1.13;0.80;;;8.50;99.90;;;;;;5003367;28;20490;-83
2024/01/23 00:31:36;;;;;;;1.25;0.43;;;8.50;99.90;;;;;;5014352;28;20026;-82
2024/01/23 00:34:02;;;;;;;7.88;1.15;;;8.50;99.90;;;;;;5013093;28;20038;-83
2024/01/23 00:36:28;;;;;;;3.20;1.92;;;8.50;99.90;;;;;;5011805;28;20029;-83
2024/01/23 00:38:54;;;;;;;12.25;4.00;;;8.50;99.90;;;;;;5014172;28;20108;-83
2024/01/23 00:41:19;;;;;;;2.72;0.57;;;8.50;99.90;;;;;;5012965;28;20079;-83
2024/01/23 00:43:45;;;;;;;1.75;0.63;;;8.50;99.90;;;;;;5004714;28;20029;-83
2024/01/23 00:46:11;;;;;;;3.47;1.27;;;8.40;99.90;;;;;;5013908;28;20117;-83
2024/01/23 00:48:37;;;;;;;1.17;1.00;;;8.40;99.90;;;;;;5002194;28;20023;-84
2024/01/23 00:51:03;;;;;;;6.65;1.85;;;8.40;99.90;;;;;;5002530;28;20029;-82
2024/01/23 00:53:29;;;;;;;0.40;0.35;;;8.40;99.90;;;;;;5015993;28;20022;-83
2024/01/23 00:55:55;;;;;;;2.33;1.38;;;8.30;99.90;;;;;;5012942;28;20049;-84
2024/01/23 00:58:20;;;;;;;2.28;0.98;;;8.30;99.90;;;;;;5014076;28;20018;-83
2024/01/23 01:00:46;;;;;;;13.93;3.35;;;8.20;99.90;;;;;;5014245;28;20045;-79
2024/01/23 01:03:12;;;;;;;17.10;1.30;;;8.30;99.90;;;;;;5013514;28;20079;-83
2024/01/23 01:05:38;;;;;;;2.65;1.65;;;8.20;99.90;;;;;;5012353;28;20487;-83
2024/01/23 01:08:05;;;;;;;1.00;0.45;;;8.10;99.90;;;;;;5006494;28;20022;-82
2024/01/23 01:10:31;;;;;;;9.60;1.00;;;8.20;99.90;;;;;;5009902;28;20113;-83
2024/01/23 01:12:57;;;;;;;0.00;0.00;;;8.20;99.90;;;;;;5017673;28;20073;-83
2024/01/23 01:15:23;;;;;;;0.45;0.45;;;8.20;99.90;;;;;;5007322;28;20037;-82
2024/01/23 01:17:48;;;;;;;4.35;0.65;;;8.10;99.90;;;;;;4999820;28;20076;-83
2024/01/23 01:20:15;;;;;;;6.68;1.65;;;8.10;99.90;;;;;;5003126;28;20037;-83
2024/01/23 01:22:41;;;;;;;6.55;1.27;;;8.20;99.90;;;;;;5020433;28;20032;-83
2024/01/23 01:25:08;;;;;;;5.68;1.02;;;8.10;99.90;;;;;;4996542;28;20821;-82
2024/01/23 01:27:34;;;;;;;5.18;1.85;;;8.10;99.90;;;;;;4996715;28;20026;-83
2024/01/23 01:30:00;;;;;;;3.78;2.08;;;8.20;99.90;;;;;;5003234;28;20029;-83
2024/01/23 01:32:26;;;;;;;10.80;1.45;;;8.20;99.90;;;;;;4995633;28;20034;-82
2024/01/23 01:34:52;;;;;;;11.93;2.17;;;8.00;99.90;;;;;;5002259;28;20038;-82
2024/01/23 01:37:18;;;;;;;7.93;1.25;;;8.10;99.90;;;;;;5011540;28;20029;-83
2024/01/23 01:39:43;;;;;;;8.77;2.72;;;8.10;99.90;;;;;;5013725;28;20037;-83
2024/01/23 01:42:09;;;;;;;10.15;2.05;;;8.10;99.90;;;;;;5011763;28;20520;-82
2024/01/23 01:44:35;;;;;;;16.13;1.33;;;8.10;99.90;;;;;;5012466;28;20038;-79
2024/01/23 01:47:01;;;;;;;30.45;2.83;;;8.00;99.90;;;;;;5012071;28;20037;-82
2024/01/23 01:49:27;;;;;;;3.88;1.50;;;8.10;99.90;;;;;;5009655;28;20026;-82
2024/01/23 01:51:53;;;;;;;17.30;2.50;;;8.00;99.90;;;;;;4998827;28;20030;-79
2024/01/23 01:54:21;;;;;;;7.78;2.38;;;8.10;99.90;;;;;;4998671;28;20038;-82
2024/01/23 01:56:47;;;;;;;4.38;1.70;;;8.10;99.90;;;;;;4996590;28;20030;-83
2024/01/23 01:59:13;;;;;;;6.60;0.45;;;8.20;99.90;;;;;;5012782;28;20137;-83
2024/01/23 02:01:39;;;;;;;12.13;1.13;;;8.10;99.90;;;;;;5013117;28;20129;-83
2024/01/23 02:04:06;;;;;;;8.98;1.70;;;8.10;99.90;;;;;;5006056;28;20125;-82
2024/01/23 02:06:34;;;;;;;1.90;0.57;;;8.00;99.90;;;;;;5006269;28;20467;-83
2024/01/23 02:09:00;;;;;;;3.03;1.30;;;8.00;99.90;;;;;;5010133;28;20022;-83
2024/01/23 02:11:25;;;;;;;0.60;0.30;;;7.90;99.90;;;;;;5012453;28;20042;-83
2024/01/23 02:13:51;;;;;;;7.18;1.67;;;8.00;99.90;;;;;;5010416;28;20124;-84
2024/01/23 02:16:18;;;;;;;4.60;1.73;;;8.00;99.90;;;;;;5007969;28;20048;-82
2024/01/23 02:18:44;;;;;;;9.85;1.20;;;8.10;99.90;;;;;;5004196;28;20107;-82
2024/01/23 02:21:12;;;;;;;0.90;0.35;;;8.00;99.90;;;;;;5011286;28;20018;-82
2024/01/23 02:23:37;;;;;;;2.17;0.77;;;8.00;99.90;;;;;;5009017;28;20018;-85
2024/01/23 02:26:03;;;;;;;5.38;1.30;;;8.00;99.90;;;;;;5008331;28;20121;-83
2024/01/23 02:28:29;;;;;;;14.00;1.13;;;7.90;99.90;;;;;;5009449;28;20076;-83
2024/01/23 02:30:55;;;;;;;0.82;0.63;;;7.90;99.90;;;;;;4996620;28;20023;-83
2024/01/23 02:33:21;;;;;;;16.55;3.20;;;7.90;99.90;;;;;;5008442;28;20089;-83
2024/01/23 02:35:47;;;;;;;3.60;1.38;;;7.90;99.90;;;;;;4994330;28;20047;-83
2024/01/23 02:38:12;;;;;;;3.65;0.50;;;7.90;99.90;;;;;;5005889;28;20061;-83
2024/01/23 02:40:38;;;;;;;2.47;1.92;;;7.90;99.90;;;;;;5003315;28;20088;-83
2024/01/23 02:43:04;;;;;;;0.65;0.30;;;7.90;99.90;;;;;;5010097;28;20088;-82
2024/01/23 02:45:30;;;;;;;0.00;0.00;;;7.90;99.90;;;;;;5010561;28;20033;-83
2024/01/23 02:47:56;;;;;;;23.55;3.95;;;7.80;99.90;;;;;;5007436;28;20029;-83
2024/01/23 02:50:22;;;;;;;1.75;1.13;;;7.80;99.90;;;;;;5020048;28;20432;-82
2024/01/23 02:52:49;;;;;;;1.80;0.95;;;7.90;99.90;;;;;;5005110;28;20364;-82
2024/01/23 02:55:15;;;;;;;11.98;0.45;;;7.90;99.90;;;;;;5002831;28;20463;-84
2024/01/23 02:57:41;;;;;;;1.23;0.22;;;7.80;99.90;;;;;;5008880;28;20387;-83
2024/01/23 03:00:08;;;;;;;2.00;0.55;;;7.90;99.90;;;;;;4996719;28;20035;-82
2024/01/23 03:02:34;;;;;;;7.68;2.45;;;7.80;99.90;;;;;;4994122;28;20022;-83
2024/01/23 03:04:59;;;;;;;1.15;1.05;;;7.70;99.90;;;;;;5006952;28;20022;-80
2024/01/23 03:07:25;;;;;;;12.52;1.67;;;7.70;99.90;;;;;;5011452;28;20540;-83
2024/01/23 03:09:52;;;;;;;3.65;1.05;;;7.70;99.90;;;;;;5010450;28;20026;-79
2024/01/23 03:12:22;;;;;;;0.30;0.30;;;7.70;99.90;;;;;;5007093;28;20030;-84
2024/01/23 03:14:50;;;;;;;3.03;1.13;;;7.70;99.90;;;;;;5008259;28;20051;-83
2024/01/23 03:17:17;;;;;;;0.40;0.40;;;7.70;99.90;;;;;;5004064;28;20034;-83
2024/01/23 03:19:43;;;;;;;3.83;0.90;;;7.70;99.90;;;;;;5005548;28;20041;-82
2024/01/23 03:22:10;;;;;;;9.07;1.25;;;7.60;99.90;;;;;;5007771;28;20022;-83
2024/01/23 03:24:40;;;;;;;19.02;1.23;;;7.60;99.90;;;;;;5003388;28;20537;-83
2024/01/23 03:27:06;;;;;;;3.38;0.73;;;7.60;99.90;;;;;;5006331;28;20076;-80
2024/01/23 03:29:42;;;;;;;11.88;2.08;;;7.60;99.90;;;;;;5000529;28;20018;-84
2024/01/23 03:32:09;;;;;;;3.45;1.23;;;7.60;99.90;;;;;;4995925;28;20029;-83
2024/01/23 03:34:36;;;;;;;15.93;1.17;;;7.60;99.90;;;;;;4999418;28;20042;-83
2024/01/23 03:37:02;;;;;;;1.95;0.20;;;7.50;99.90;;;;;;5028561;28;20022;-82
2024/01/23 03:39:28;;;;;;;2.72;0.47;;;7.50;99.90;;;;;;5003509;28;20029;-84
2024/01/23 03:41:54;;;;;;;1.02;0.80;;;7.50;99.90;;;;;;5026013;28;20113;-83
2024/01/23 03:44:26;;;;;;;2.63;0.25;;;7.40;99.90;;;;;;5010271;28;20030;-80
2024/01/23 03:46:52;;;;;;;0.13;0.13;;;7.40;99.90;;;;;;5007423;28;20022;-84
2024/01/23 03:49:19;;;;;;;0.00;0.00;;;7.40;99.90;;;;;;5004371;28;20023;-83
2024/01/23 03:51:45;;;;;;;9.52;1.65;;;7.40;99.90;;;;;;5000285;28;20026;-83
2024/01/23 03:54:11;;;;;;;1.75;0.80;;;7.50;99.90;;;;;;4998565;28;20031;-80
2024/01/23 03:56:37;;;;;;;4.75;0.68;;;7.50;99.90;;;;;;4995068;28;20041;-82
2024/01/23 03:59:03;;;;;;;0.00;0.00;;;7.50;99.90;;;;;;4999160;28;20019;-82
2024/01/23 04:01:28;;;;;;;5.72;1.58;;;7.40;99.90;;;;;;4997799;28;20037;-82
2024/01/23 04:03:54;;;;;;;2.72;0.38;;;7.50;99.90;;;;;;4999620;28;20037;-81
2024/01/23 04:06:20;;;;;;;5.70;1.30;;;7.60;99.90;;;;;;5015018;28;20022;-83
2024/01/23 04:08:46;;;;;;;1.45;0.25;;;7.50;99.90;;;;;;5011529;28;20525;-84
2024/01/23 04:11:11;;;;;;;0.45;0.45;;;7.50;99.90;;;;;;5013200;28;20466;-82
2024/01/23 04:13:38;;;;;;;2.97;1.75;;;7.40;99.90;;;;;;5007551;28;20026;-83
2024/01/23 04:16:07;;;;;;;1.60;0.63;;;7.40;99.90;;;;;;5014768;28;20034;-82
2024/01/23 04:18:34;;;;;;;0.28;0.28;;;7.30;99.90;;;;;;5011448;28;20030;-83
2024/01/23 04:21:00;;;;;;;7.60;0.50;;;7.40;99.90;;;;;;5007427;28;20026;-83
2024/01/23 04:23:26;;;;;;;3.60;1.38;;;7.30;99.90;;;;;;5011296;28;20546;-83
2024/01/23 04:25:52;;;;;;;2.75;1.17;;;7.20;99.90;;;;;;5003443;28;20041;-83
2024/01/23 04:28:18;;;;;;;1.45;0.93;;;7.20;99.90;;;;;;5000171;28;20109;-82
2024/01/23 04:30:44;;;;;;;0.10;0.10;;;7.20;99.90;;;;;;4999392;28;20025;-83
2024/01/23 04:33:09;;;;;;;0.00;0.00;;;7.20;99.90;;;;;;5011224;28;20061;-83
2024/01/23 04:35:35;;;;;;;0.70;0.50;;;7.20;99.90;;;;;;4996249;28;20038;-83
2024/01/23 04:38:01;;;;;;;4.40;1.25;;;7.10;99.90;;;;;;5028061;28;20101;-83
2024/01/23 04:40:27;;;;;;;13.70;1.77;;;7.10;99.90;;;;;;5028094;28;20077;-81
2024/01/23 04:42:53;;;;;;;0.10;0.10;;;7.10;99.90;;;;;;5011344;28;20050;-81
2024/01/23 04:45:19;;;;;;;12.90;2.45;;;7.00;99.90;;;;;;5012419;28;20022;-83
2024/01/23 04:47:45;;;;;;;6.32;1.25;;;7.00;99.90;;;;;;5010005;28;20037;-83
2024/01/23 04:50:11;;;;;;;8.63;1.70;;;7.00;99.90;;;;;;5005543;28;20037;-83
2024/01/23 04:52:36;;;;;;;1.08;0.70;;;7.00;99.90;;;;;;5011415;28;20113;-82
2024/01/23 04:55:02;;;;;;;0.28;0.03;;;7.10;99.90;;;;;;5001730;28;20039;-82
2024/01/23 04:57:31;;;;;;;0.00;0.00;;;7.10;99.90;;;;;;5001246;28;20494;-83
2024/01/23 04:59:59;;;;;;;3.60;1.05;;;7.10;99.90;;;;;;4998603;28;20038;-83
2024/01/23 05:02:26;;;;;;;0.10;0.10;;;7.20;99.90;;;;;;4996252;28;20077;-83
2024/01/23 05:04:52;;;;;;;0.05;0.05;;;7.30;99.90;;;;;;5007598;28;20052;-83
2024/01/23 05:07:19;;;;;;;0.00;0.00;;;7.30;99.90;;;;;;5012430;28;20131;-83
2024/01/23 05:09:45;;;;;;;1.45;0.20;;;7.10;99.90;;;;;;5013538;28;20482;-83
2024/01/23 05:12:11;;;;;;;5.47;0.52;;;7.00;99.90;;;;;;5012385;28;20435;-82
2024/01/23 05:14:37;;;;;;;0.88;0.68;;;7.00;99.90;;;;;;5010635;28;20120;-82
2024/01/23 05:17:03;;;;;;;10.00;1.98;;;6.90;99.90;;;;;;5010714;28;20451;-82
2024/01/23 05:19:29;;;;;;;4.85;1.38;;;6.80;99.90;;;;;;5008459;28;20493;-82
2024/01/23 05:21:56;;;;;;;5.00;1.10;;;6.80;99.90;;;;;;5001249;28;20022;-82
2024/01/23 05:24:22;;;;;;;1.27;1.00;;;6.80;99.90;;;;;;5004904;28;20044;-77
2024/01/23 05:26:48;;;;;;;0.00;0.00;;;6.90;99.90;;;;;;4998931;28;20062;-82
2024/01/23 05:29:13;;;;;;;0.00;0.00;;;6.80;99.90;;;;;;5000514;28;20060;-82
2024/01/23 05:31:39;;;;;;;0.08;0.08;;;6.80;99.90;;;;;;4996835;28;20471;-83
2024/01/23 05:34:05;;;;;;;0.65;0.65;;;6.80;99.90;;;;;;4995867;28;20490;-82
2024/01/23 05:36:31;;;;;;;3.53;0.40;;;6.80;99.90;;;;;;5016771;28;20105;-82
2024/01/23 05:38:57;;;;;;;0.35;0.35;;;6.70;99.90;;;;;;5005232;28;20027;-82
2024/01/23 05:41:23;;;;;;;1.20;0.55;;;6.70;99.90;;;;;;5011159;28;20034;-82
2024/01/23 05:43:50;;;;;;;0.00;0.00;;;6.70;99.90;;;;;;5013320;28;20021;-82
2024/01/23 05:46:17;;;;;;;3.03;0.50;;;6.90;99.90;;;;;;5010687;28;20033;-82
2024/01/23 05:48:42;;;;;;;0.85;0.15;;;6.80;99.90;;;;;;5008459;28;20022;-82
2024/01/23 05:51:08;;;;;;;0.00;0.00;;;6.90;99.90;;;;;;5006429;28;20391;-83
2024/01/23 05:53:36;;;;;;;0.10;0.10;;;7.10;99.90;;;;;;5003838;28;20104;-82
2024/01/23 05:56:03;;;;;;;0.03;0.03;;;6.90;99.90;;;;;;4998020;28;20038;-83
2024/01/23 05:58:29;;;;;;;0.00;0.00;;;6.80;99.90;;;;;;4998554;28;20022;-83
2024/01/23 06:00:54;;;;;;;0.30;0.30;;;6.90;99.90;;;;;;4995446;28;20065;-82
2024/01/23 06:03:20;;;;;;;0.43;0.43;;;6.90;99.90;;;;;;4993099;28;20488;-83
2024/01/23 06:05:46;;;;;;;15.15;3.35;;;6.70;99.90;;;;;;5011535;28;20032;-82
2024/01/23 06:08:12;;;;;;;0.13;0.13;;;6.70;99.90;;;;;;5012559;28;20022;-81
2024/01/23 06:10:38;;;;;;;20.83;1.65;;;6.70;99.90;;;;;;5011894;28;20030;-83
2024/01/23 06:13:04;;;;;;;7.43;1.52;;;6.50;99.90;;;;;;5010570;28;20026;-80
2024/01/23 06:15:31;;;;;;;1.35;0.45;;;6.50;99.90;;;;;;5005037;28;20049;-82
2024/01/23 06:17:57;;;;;;;3.83;3.10;;;6.30;99.90;;;;;;5012116;28;20030;-83
2024/01/23 06:20:23;;;;;;;17.98;1.10;;;6.40;99.90;;;;;;4999953;28;20029;-83
2024/01/23 06:22:48;;;;;;;0.40;0.40;;;6.60;99.90;;;;;;5019422;28;20057;-83
2024/01/23 06:25:14;;;;;;;2.33;1.10;;;6.60;99.90;;;;;;4998562;28;20404;-83
2024/01/23 06:27:43;;;;;;;0.00;0.00;;;6.40;99.90;;;;;;5000120;28;20479;-79
2024/01/23 06:30:11;;;;;;;8.15;0.32;;;6.40;99.90;;;;;;4994789;28;20038;-79
2024/01/23 06:32:38;;;;;;;0.98;0.70;;;6.30;99.90;;;;;;4995539;28;20050;-79
2024/01/23 06:35:05;;;;;;;1.85;1.00;;;6.30;99.90;;;;;;5005955;28;20042;-82
2024/01/23 06:37:31;;;;;;;0.00;0.00;;;6.30;99.90;;;;;;5011362;28;20130;-81
2024/01/23 06:39:57;;;;;;;0.00;0.00;;;6.40;99.90;;;;;;5005759;28;20064;-75
2024/01/23 06:42:23;;;;;;;3.97;0.43;;;6.40;99.90;;;;;;4995752;28;20026;-75
2024/01/23 06:44:48;;;;;;;4.28;1.98;;;6.30;99.90;;;;;;5008065;28;20537;-82
2024/01/23 06:47:16;;;;;;;0.10;0.10;;;6.40;99.90;;;;;;5010465;28;20022;-83
2024/01/23 06:49:42;;;;;;;1.02;0.70;;;6.30;99.90;;;;;;5005739;28;20160;-78
2024/01/23 06:52:08;;;;;;;1.75;0.43;;;6.20;99.90;;;;;;5008081;28;20041;-81
2024/01/23 06:54:34;;;;;;;0.32;0.32;;;6.20;99.90;;;;;;5003933;28;20372;-82
2024/01/23 06:57:00;;;;;;;0.13;0.10;;;6.30;99.90;;;;;;5010166;28;20467;-83
2024/01/23 06:59:27;;;;;;;0.10;0.10;;;6.50;99.90;;;;;;5021979;28;20135;-79
2024/01/23 07:01:52;;;;;;;0.10;0.10;;;6.40;99.90;;;;;;5013477;28;20017;-82
2024/01/23 07:04:18;;;;;;;12.65;3.30;;;6.30;99.90;;;;;;5006050;28;20419;-83
2024/01/23 07:06:44;;;;;;;2.83;1.05;;;6.30;99.90;;;;;;5013321;28;20399;-82
2024/01/23 07:09:11;;;;;;;30.25;1.40;;;6.30;99.90;;;;;;5009683;28;20087;-81
2024/01/23 07:11:46;;;;;;;0.63;0.60;;;6.20;99.90;;;;;;5008892;28;20038;-82
2024/01/23 07:14:12;;;;;;;3.20;0.90;;;6.20;99.90;;;;;;5007561;28;20030;-80
2024/01/23 07:16:38;;;;;;;4.05;1.85;;;6.20;99.90;;;;;;5003927;28;20092;-79
2024/01/23 07:19:04;;;;;;;0.68;0.43;;;6.20;99.90;;;;;;5006147;28;20026;-83
2024/01/23 07:21:30;;;;;;;11.18;2.00;;;6.20;99.90;;;;;;5008349;28;20027;-82
2024/01/23 07:23:56;;;;;;;2.28;1.65;;;6.20;99.90;;;;;;5013979;28;20033;-82
2024/01/23 07:26:21;;;;;;;1.45;0.45;;;6.30;99.90;;;;;;4999566;28;20391;-81
2024/01/23 07:28:47;;;;;;;0.70;0.50;;;6.20;99.90;;;;;;5019018;28;20133;-79
2024/01/23 07:31:13;;;;;;;7.97;1.25;;;6.30;99.90;;;;;;5008282;28;20037;-78
2024/01/23 07:33:39;;;;;;;0.08;0.08;;;6.30;99.90;;;;;;5019646;28;20026;-76
2024/01/23 07:36:05;;;;;;;0.00;0.00;;;6.30;99.90;;;;;;5001569;28;20450;-76
2024/01/23 07:38:31;;;;;;;10.75;2.50;;;6.50;99.90;;;;;;5007086;28;20042;-79
2024/01/23 07:40:56;;;;;;;4.75;0.40;;;6.30;99.90;;;;;;5008772;28;20490;-76
2024/01/23 07:43:26;;;;;;;17.27;3.70;;;6.40;99.90;;;;;;5008544;28;20036;-81
2024/01/23 07:45:52;;;;;;;2.55;0.73;;;6.40;99.90;;;;;;5012135;28;20056;-76
2024/01/23 07:48:18;;;;;;;1.55;0.88;;;6.30;99.90;;;;;;4994541;28;20105;-76
2024/01/23 07:50:44;;;;;;;57.47;3.45;;;6.30;99.90;;;;;;4994978;28;20018;-74
2024/01/23 07:53:10;;;;;;;2.05;1.55;;;6.20;99.90;;;;;;5012478;28;20033;-75
2024/01/23 07:55:36;;;;;;;0.17;0.17;;;6.20;99.90;;;;;;5009707;28;20026;-76
2024/01/23 07:58:02;;;;;;;7.22;1.27;;;6.40;99.90;;;;;;5004770;28;20056;-76
2024/01/23 08:00:28;;;;;;;2.63;0.80;;;6.50;99.90;;;;;;4999100;28;20034;-76
2024/01/23 08:02:54;;;;;;;4.93;1.48;;;6.70;99.90;;;;;;5017844;28;20113;-74
2024/01/23 08:05:19;;;;;;;0.80;0.45;;;6.60;99.90;;;;;;5010088;28;20018;-74
2024/01/23 08:07:45;;;;;;;1.65;1.08;;;6.40;99.90;;;;;;5013089;28;20022;-83
2024/01/23 08:10:11;;;;;;;0.10;0.10;;;6.40;99.90;;;;;;5008744;28;20035;-84
2024/01/23 08:12:37;;;;;;;0.00;0.00;;;6.50;99.90;;;;;;5014076;28;20037;-84
2024/01/23 08:15:03;;;;;;;0.10;0.10;;;6.50;99.90;;;;;;4995701;28;20502;-82
2024/01/23 08:17:29;;;;;;;0.45;0.45;;;6.50;99.90;;;;;;5007963;28;20026;-84
2024/01/23 08:19:55;;;;;;;1.65;0.47;;;6.60;99.90;;;;;;5011003;28;20025;-84
2024/01/23 08:22:21;;;;;;;17.48;1.40;;;6.60;99.90;;;;;;5027007;28;20057;-84
2024/01/23 08:24:47;;;;;;;42.50;2.13;;;6.70;99.90;;;;;;5002382;28;20030;-85
2024/01/23 08:27:14;;;;;;;3.22;0.85;;;6.50;99.90;;;;;;4996839;28;20015;-78
2024/01/23 08:29:40;;;;;;;10.45;2.67;;;6.50;99.90;;;;;;5007994;28;20065;-85
2024/01/23 08:32:06;;;;;;;0.77;0.55;;;6.50;99.90;;;;;;5004577;28;20054;-77
2024/01/23 08:34:32;;;;;;;0.52;0.35;;;6.50;99.90;;;;;;5008022;28;20879;-84
2024/01/23 08:36:57;;;;;;;1.73;1.45;;;6.50;99.90;;;;;;5017553;28;20442;-85
2024/01/23 08:39:23;;;;;;;0.10;0.10;;;6.50;99.90;;;;;;5002676;28;20053;-84
2024/01/23 08:41:52;;;;;;;1.77;0.93;;;6.50;99.90;;;;;;5008898;28;20033;-85
2024/01/23 08:44:21;;;;;;;0.13;0.13;;;6.50;99.90;;;;;;5010539;28;20088;-85
2024/01/23 08:46:48;;;;;;;11.90;1.35;;;6.70;99.90;;;;;;5009096;28;20241;-84
2024/01/23 08:49:15;;;;;;;0.70;0.52;;;6.80;99.90;;;;;;5006472;28;20030;-85
2024/01/23 08:51:41;;;;;;;6.57;1.23;;;6.80;99.90;;;;;;4998652;28;20088;-85
2024/01/23 08:54:07;;;;;;;0.00;0.00;;;6.90;99.90;;;;;;5010389;28;20041;-85
2024/01/23 08:56:33;;;;;;;0.73;0.52;;;7.00;99.90;;;;;;5007239;28;20022;-86
2024/01/23 08:58:59;;;;;;;2.08;0.60;;;7.10;99.90;;;;;;5003765;28;20030;-75
2024/01/23 09:01:25;;;;;;;0.35;0.35;;;7.30;99.90;;;;;;5001244;28;20039;-85
2024/01/23 09:03:50;;;;;;;0.28;0.28;;;7.20;99.90;;;;;;4995175;28;20018;-85
2024/01/23 09:06:16;;;;;;;6.50;1.60;;;7.20;99.90;;;;;;5010606;28;20225;-85
2024/01/23 09:08:42;;;;;;;6.50;2.90;;;7.20;99.90;;;;;;5008149;28;20493;-85
2024/01/23 09:11:08;;;;;;;4.65;1.35;;;7.40;99.90;;;;;;5009650;28;20053;-85
2024/01/23 09:13:34;;;;;;;6.15;1.05;;;7.30;99.90;;;;;;4989819;28;20068;-85
2024/01/23 09:16:01;;;;;;;0.52;0.30;;;7.50;99.90;;;;;;5005426;28;20092;-85
2024/01/23 09:18:28;;;;;;;0.20;0.20;;;7.60;99.90;;;;;;5002610;28;20068;-84
2024/01/23 09:20:54;;;;;;;0.90;0.75;;;7.70;99.90;;;;;;5008897;28;20024;-86
2024/01/23 09:23:19;;;;;;;18.98;0.90;;;7.80;99.90;;;;;;5005729;28;20022;-85
2024/01/23 09:25:45;;;;;;;14.52;4.38;;;7.70;99.90;;;;;;4998590;28;20034;-84
2024/01/23 09:28:11;;;;;;;32.78;2.05;;;7.70;99.90;;;;;;5000735;28;20024;-85
2024/01/23 09:30:37;;;;;;;2.58;0.75;;;7.70;99.90;;;;;;5010663;28;20038;-80
2024/01/23 09:33:03;;;;;;;8.85;1.45;;;8.00;99.90;;;;;;4999310;28;20023;-86
2024/01/23 09:35:30;;;;;;;5.38;1.95;;;8.10;99.90;;;;;;4992330;28;20368;-84
2024/01/23 09:37:56;;;;;;;4.85;1.52;;;8.40;99.90;;;;;;5007312;28;20117;-82
2024/01/23 09:40:23;;;;;;;3.03;1.33;;;8.50;99.90;;;;;;5002199;28;20329;-85
2024/01/23 09:42:53;;;;;;;0.10;0.10;;;8.50;99.90;;;;;;4991528;28;20026;-85
2024/01/23 09:45:25;;;;;;;21.75;2.90;;;8.60;99.90;;;;;;5006765;28;20026;-84
2024/01/23 09:47:51;;;;;;;0.10;0.10;;;8.90;99.90;;;;;;5004892;28;20176;-83
2024/01/23 09:50:18;;;;;;;0.10;0.10;;;8.80;99.90;;;;;;5002824;28;20018;-85
2024/01/23 09:52:46;;;;;;;9.40;1.67;;;8.80;99.90;;;;;;5004516;28;20022;-85
2024/01/23 09:55:12;;;;;;;0.10;0.10;;;9.00;99.90;;;;;;5006075;28;20184;-84
2024/01/23 09:57:43;;;;;;;2.05;0.77;;;8.80;99.90;;;;;;5005583;28;20015;-85
2024/01/23 10:00:13;;;;;;;1.20;0.88;;;9.00;99.90;;;;;;4995236;28;20030;-85
2024/01/23 10:02:39;;;;;;;6.78;1.00;;;9.10;99.90;;;;;;4997848;28;20069;-85
2024/01/23 10:05:10;;;;;;;6.03;0.77;;;9.20;99.90;;;;;;5008896;28;20486;-81
2024/01/23 10:07:37;;;;;;;9.20;2.80;;;8.90;99.90;;;;;;5022080;28;20601;-86
2024/01/23 10:10:13;;;;;;;9.95;1.38;;;8.60;99.90;;;;;;5005213;28;20037;-83
2024/01/23 10:12:39;;;;;;;4.53;2.35;;;8.60;99.90;;;;;;5017853;28;20032;-84
2024/01/23 10:15:07;;;;;;;2.40;0.45;;;8.40;99.90;;;;;;5003466;28;20042;-84
2024/01/23 10:17:33;;;;;;;0.52;0.35;;;8.50;99.90;;;;;;5003850;28;20569;-82
2024/01/23 10:19:58;;;;;;;0.00;0.00;;;8.50;99.90;;;;;;5002797;28;20030;-85
2024/01/23 10:22:24;;;;;;;0.10;0.10;;;8.80;99.90;;;;;;5002357;28;20014;-84
2024/01/23 10:24:50;;;;;;;1.55;0.43;;;8.90;99.90;;;;;;5002028;28;20288;-85
2024/01/23 10:27:17;;;;;;;14.00;2.17;;;9.00;99.90;;;;;;4994401;28;20026;-84
2024/01/23 10:29:44;;;;;;;16.40;5.18;;;9.00;99.90;;;;;;5009518;28;20030;-83
2024/01/23 10:32:10;;;;;;;3.97;1.23;;;9.00;99.90;;;;;;5011929;28;20502;-84
2024/01/23 10:34:36;;;;;;;7.68;1.75;;;9.20;99.90;;;;;;4994689;28;20042;-84
2024/01/23 10:37:02;;;;;;;1.20;0.65;;;9.10;99.90;;;;;;5018048;28;20224;-80
2024/01/23 10:39:28;;;;;;;0.00;0.00;;;9.20;99.90;;;;;;5001105;28;20021;-84
2024/01/23 10:41:54;;;;;;;6.72;0.63;;;9.40;99.90;;;;;;5009099;28;20486;-81
2024/01/23 10:44:25;;;;;;;20.05;3.38;;;9.40;99.90;;;;;;5010031;28;20022;-82
2024/01/23 10:46:55;;;;;;;0.30;0.30;;;9.60;99.90;;;;;;5004596;28;20470;-81
2024/01/23 10:49:22;;;;;;;8.88;1.00;;;9.80;99.90;;;;;;5006353;28;20471;-85
2024/01/23 10:51:51;;;;;;;7.60;1.58;;;9.80;99.90;;;;;;5003924;28;20087;-83
2024/01/23 10:54:31;;;;;;;1.65;1.38;;;9.50;99.90;;;;;;5010232;28;20083;-84
2024/01/23 10:57:04;;;;;;;7.22;1.38;;;9.40;99.90;;;;;;5007846;28;20474;-84
2024/01/23 10:59:31;;;;;;;2.28;1.35;;;9.30;99.90;;;;;;4998357;28;20033;-84
2024/01/23 11:02:04;;;;;;;18.85;2.35;;;9.30;99.90;;;;;;4996862;28;20041;-85
2024/01/23 11:04:30;;;;;;;7.28;4.90;;;9.20;99.90;;;;;;5011230;28;20106;-81
2024/01/23 11:07:02;;;;;;;1.92;0.50;;;9.40;99.90;;;;;;5007559;28;20027;-85
2024/01/23 11:09:43;;;;;;;2.65;0.75;;;9.50;99.90;;;;;;5009870;28;20026;-85
2024/01/23 11:12:27;;;;;;;3.55;0.38;;;9.80;99.90;;;;;;5012757;28;20036;-83
2024/01/23 11:15:02;;;;;;;14.95;2.85;;;10.10;99.90;;;;;;5012134;28;20044;-84
2024/01/23 11:17:32;;;;;;;0.03;0.03;;;9.80;99.90;;;;;;5005782;28;20033;-84
2024/01/23 11:20:15;;;;;;;1.25;0.55;;;10.00;99.90;;;;;;5006769;28;20030;-84
2024/01/23 11:22:41;;;;;;;0.30;0.22;;;9.90;99.90;;;;;;5009843;28;20037;-83
2024/01/23 11:25:11;;;;;;;4.88;1.90;;;9.60;99.90;;;;;;5005589;28;20030;-85
2024/01/23 11:27:41;;;;;;;3.92;2.45;;;9.50;99.90;;;;;;4998828;28;20155;-84
2024/01/23 11:30:13;;;;;;;6.68;2.90;;;9.40;99.90;;;;;;5007272;28;20109;-84
2024/01/23 11:32:39;;;;;;;16.90;1.65;;;9.50;99.90;;;;;;5001484;28;20033;-84
2024/01/23 11:35:12;;;;;;;10.43;2.40;;;9.70;99.90;;;;;;4994956;28;20033;-84
2024/01/23 11:37:49;;;;;;;0.40;0.40;;;9.80;99.90;;;;;;5007491;28;20532;-84
2024/01/23 11:40:27;;;;;;;20.45;3.45;;;9.70;99.90;;;;;;5010694;28;20034;-84
2024/01/23 11:42:54;;;;;;;25.38;5.78;;;9.60;99.90;;;;;;5007890;28;20030;-81
2024/01/23 11:45:28;;;;;;;8.55;1.45;;;9.40;99.90;;;;;;5006675;28;20021;-84
2024/01/23 11:48:05;;;;;;;13.68;1.80;;;9.40;99.90;;;;;;5006347;28;20036;-84
2024/01/23 11:50:35;;;;;;;15.65;4.00;;;9.40;99.90;;;;;;5000701;28;20556;-83
2024/01/23 11:53:02;;;;;;;17.95;2.97;;;9.70;99.90;;;;;;4999157;28;20027;-84
2024/01/23 11:55:29;;;;;;;5.45;1.85;;;9.50;99.90;;;;;;5006154;28;20049;-84
2024/01/23 11:58:00;;;;;;;1.63;0.75;;;9.50;99.90;;;;;;5009488;28;20101;-80
2024/01/23 12:00:27;;;;;;;7.13;1.75;;;9.80;99.90;;;;;;5005470;28;20026;-84
2024/01/23 12:02:53;;;;;;;10.15;3.25;;;9.80;99.90;;;;;;5010382;28;20042;-83
2024/01/23 12:05:19;;;;;;;13.25;4.60;;;9.60;99.90;;;;;;4997723;28;20097;-78
2024/01/23 12:07:46;;;;;;;4.75;0.45;;;9.60;99.90;;;;;;5006117;28;20022;-82
2024/01/23 12:10:15;;;;;;;1.60;1.50;;;9.90;99.90;;;;;;5008446;28;20559;-82
2024/01/23 12:12:41;;;;;;;2.05;0.60;;;10.00;99.90;;;;;;4999284;28;20018;-82
2024/01/23 12:15:08;;;;;;;3.28;0.52;;;9.90;99.90;;;;;;5010237;28;20505;-81
2024/01/23 12:17:35;;;;;;;23.23;4.10;;;10.00;99.90;;;;;;5008298;28;20028;-81
2024/01/23 12:20:09;;;;;;;2.58;1.38;;;9.90;99.90;;;;;;5009660;28;20030;-81
2024/01/23 12:22:38;;;;;;;9.82;1.70;;;10.00;99.90;;;;;;5009378;28;20030;-82
2024/01/23 12:25:08;;;;;;;9.00;2.03;;;10.00;99.90;;;;;;5011829;28;20026;-82
2024/01/23 12:27:34;;;;;;;16.80;3.30;;;9.80;99.90;;;;;;5021641;28;20072;-82
2024/01/23 12:30:01;;;;;;;10.43;2.30;;;9.80;99.90;;;;;;5011122;28;20418;-81
2024/01/23 12:32:28;;;;;;;18.00;3.03;;;9.80;99.90;;;;;;5002153;28;20026;-80
2024/01/23 12:34:54;;;;;;;16.13;2.83;;;9.80;99.90;;;;;;5001732;28;20109;-81
2024/01/23 12:37:28;;;;;;;13.85;1.80;;;9.80;99.90;;;;;;4999041;28;20057;-82
2024/01/23 12:39:54;;;;;;;38.90;4.78;;;10.00;99.90;;;;;;5000141;28;20137;-81
2024/01/23 12:42:20;;;;;;;37.65;2.65;;;10.10;99.90;;;;;;5014092;28;20021;-82
2024/01/23 12:44:47;;;;;;;10.93;0.82;;;10.00;99.90;;;;;;4995189;28;20105;-82
2024/01/23 12:47:14;;;;;;;3.83;2.58;;;9.90;99.90;;;;;;5011911;28;20175;-81
2024/01/23 12:49:40;;;;;;;38.95;3.90;;;9.90;99.90;;;;;;5003846;28;20081;-81
2024/01/23 12:52:16;;;;;;;10.35;1.73;;;10.00;99.90;;;;;;5005188;28;20176;-81
2024/01/23 12:54:43;;;;;;;27.10;4.18;;;9.90;99.90;;;;;;4999451;28;20030;-82